Time;durP1;ratioP1;P1;durP2;ratioP2;P2;SDS_P1;SDS_P2;PMS_P1;PMS_P2;Temp;Humidity;BMP_temperature;BMP_pressure;BME280_temperature;BME280_humidity;BME280_pressure;Samples;Min_cycle;Max_cycle;Signal;HPM_P1;HPM_P2
2024/02/05 00:01:18;;;;;;;;;;;;;;;10.90;72.67;99382.72;5114090;28;20278;-67
2024/02/05 00:03:47;;;;;;;;;;;;;;;10.93;72.56;99377.63;5113192;28;19920;-67
2024/02/05 00:06:17;;;;;;;;;;;;;;;10.93;72.58;99374.22;5114096;28;20036;-67
2024/02/05 00:08:46;;;;;;;;;;;;;;;10.96;72.50;99374.19;5114731;28;19920;-67
2024/02/05 00:11:15;;;;;;;;;;;;;;;10.99;72.43;99369.06;5114337;28;19927;-66
2024/02/05 00:13:44;;;;;;;;;;;;;;;10.99;72.29;99359.69;5114306;28;20112;-67
2024/02/05 00:16:12;;;;;;;;;;;;;;;10.97;72.56;99350.34;5115168;28;19920;-66
2024/02/05 00:18:42;;;;;;;;;;;;;;;10.94;72.84;99346.09;5116922;28;19926;-66
2024/02/05 00:21:11;;;;;;;;;;;;;;;10.93;72.97;99343.56;5116920;28;19965;-67
2024/02/05 00:23:41;;;;;;;;;;;;;;;10.90;73.00;99346.13;5117697;28;19946;-67
2024/02/05 00:26:09;;;;;;;;;;;;;;;10.88;73.05;99335.09;5118107;28;19920;-68
2024/02/05 00:28:39;;;;;;;;;;;;;;;10.91;73.15;99345.28;5117679;28;19920;-67
2024/02/05 00:31:07;;;;;;;;;;;;;;;10.91;72.97;99338.47;5118258;28;20385;-66
2024/02/05 00:33:36;;;;;;;;;;;;;;;10.90;73.06;99341.88;5117513;28;20019;-66
2024/02/05 00:36:05;;;;;;;;;;;;;;;10.91;72.91;99345.28;5117841;28;19951;-66
2024/02/05 00:38:34;;;;;;;;;;;;;;;10.91;73.02;99338.47;5117845;28;19923;-67
2024/02/05 00:41:04;;;;;;;;;;;;;;;10.93;72.81;99325.69;5117799;28;19943;-67
2024/02/05 00:43:32;;;;;;;;;;;;;;;10.90;73.07;99328.25;5117645;28;19984;-68
2024/02/05 00:46:01;;;;;;;;;;;;;;;10.89;73.21;99336.81;5117371;28;19920;-66
2024/02/05 00:48:30;;;;;;;;;;;;;;;10.89;73.43;99347.00;5117490;28;19979;-67
2024/02/05 00:50:58;;;;;;;;;;;;;;;10.89;73.38;99332.53;5115975;28;19969;-67
2024/02/05 00:53:27;;;;;;;;;;;;;;;10.88;73.39;99335.94;5117846;28;20273;-68
2024/02/05 00:55:55;;;;;;;;;;;;;;;10.87;73.34;99333.41;5117501;28;19919;-67
2024/02/05 00:58:25;;;;;;;;;;;;;;;10.85;73.55;99340.22;5117081;28;20008;-67
2024/02/05 01:00:53;;;;;;;;;;;;;;;10.84;73.75;99338.53;5117341;28;19930;-66
2024/02/05 01:03:22;;;;;;;;;;;;;;;10.82;73.99;99335.16;5116204;28;20014;-67
2024/02/05 01:05:50;;;;;;;;;;;;;;;10.78;74.08;99319.84;5116863;27;20307;-67
2024/02/05 01:08:22;;;;;;;;;;;;;;;10.76;74.35;99326.69;5117429;28;19928;-67
2024/02/05 01:10:52;;;;;;;;;;;;;;;10.77;74.62;99320.69;5117302;28;19980;-67
2024/02/05 01:13:21;;;;;;;;;;;;;;;10.76;74.71;99331.78;5116887;28;19919;-66
2024/02/05 01:15:51;;;;;;;;;;;;;;;10.73;74.71;99321.59;5117007;28;19919;-66
2024/02/05 01:18:20;;;;;;;;;;;;;;;10.72;75.00;99319.06;5115875;28;19920;-67
2024/02/05 01:20:49;;;;;;;;;;;;;;;10.73;74.97;99313.94;5116978;27;19923;-67
2024/02/05 01:23:18;;;;;;;;;;;;;;;10.70;75.17;99306.28;5116651;28;19919;-66
2024/02/05 01:25:46;;;;;;;;;;;;;;;10.69;75.13;99289.28;5116719;28;19927;-66
2024/02/05 01:28:15;;;;;;;;;;;;;;;10.69;75.45;99299.50;5116509;28;19931;-65
2024/02/05 01:30:44;;;;;;;;;;;;;;;10.70;75.41;99285.06;5116971;28;20389;-66
2024/02/05 01:33:14;;;;;;;;;;;;;;;10.68;75.61;99292.69;5116880;28;19920;-65
2024/02/05 01:35:43;;;;;;;;;;;;;;;10.67;75.56;99285.91;5116721;28;19920;-67
2024/02/05 01:38:11;;;;;;;;;;;;;;;10.68;75.85;99297.81;5116646;28;20319;-67
2024/02/05 01:40:40;;;;;;;;;;;;;;;10.71;75.73;99302.88;5116838;28;19926;-67
2024/02/05 01:43:08;;;;;;;;;;;;;;;10.75;75.72;99304.56;5116205;28;19919;-68
2024/02/05 01:45:37;;;;;;;;;;;;;;;10.75;75.77;99303.69;5116413;28;19926;-67
2024/02/05 01:48:06;;;;;;;;;;;;;;;10.72;75.97;99299.47;5116111;28;19963;-68
2024/02/05 01:50:37;;;;;;;;;;;;;;;10.71;76.13;99282.47;5116455;28;19923;-67
2024/02/05 01:53:06;;;;;;;;;;;;;;;10.72;75.90;99290.97;5116129;28;20391;-66
2024/02/05 01:55:34;;;;;;;;;;;;;;;10.71;76.15;99287.56;5116019;28;20379;-67
2024/02/05 01:58:03;;;;;;;;;;;;;;;10.73;76.17;99275.66;5115906;28;19928;-68
2024/02/05 02:00:34;;;;;;;;;;;;;;;10.70;76.33;99274.84;5116270;28;19963;-67
2024/02/05 02:03:04;;;;;;;;;;;;;;;10.67;76.37;99262.94;5114986;28;19919;-67
2024/02/05 02:05:32;;;;;;;;;;;;;;;10.68;76.55;99277.38;5116066;28;20024;-67
2024/02/05 02:08:04;;;;;;;;;;;;;;;10.69;76.74;99274.00;5115688;28;20377;-68
2024/02/05 02:10:33;;;;;;;;;;;;;;;10.68;76.89;99261.22;5116112;28;20010;-66
2024/02/05 02:13:01;;;;;;;;;;;;;;;10.65;77.21;99272.28;5114764;28;20022;-66
2024/02/05 02:15:30;;;;;;;;;;;;;;;10.63;77.38;99265.50;5116016;28;20018;-67
2024/02/05 02:18:01;;;;;;;;;;;;;;;10.59;77.61;99277.47;5115794;28;19920;-68
2024/02/05 02:20:30;;;;;;;;;;;;;;;10.57;77.68;99268.97;5115549;28;20285;-68
2024/02/05 02:23:02;;;;;;;;;;;;;;;10.56;77.99;99264.72;5115479;28;19920;-67
2024/02/05 02:25:32;;;;;;;;;;;;;;;10.55;77.83;99270.69;5115525;28;19969;-67
2024/02/05 02:28:01;;;;;;;;;;;;;;;10.55;77.79;99275.78;5115358;28;19923;-66
2024/02/05 02:30:30;;;;;;;;;;;;;;;10.58;77.98;99273.19;5115298;28;19949;-67
2024/02/05 02:33:04;;;;;;;;;;;;;;;10.61;78.20;99257.03;5115346;28;20370;-66
2024/02/05 02:35:36;;;;;;;;;;;;;;;10.66;77.71;99245.94;5114448;28;19926;-66
2024/02/05 02:38:07;;;;;;;;;;;;;;;10.66;77.50;99248.47;5115147;28;19942;-66
2024/02/05 02:40:39;;;;;;;;;;;;;;;10.67;77.73;99249.34;5113252;28;19923;-66
2024/02/05 02:43:09;;;;;;;;;;;;;;;10.67;77.87;99239.97;5115332;28;19942;-66
2024/02/05 02:45:37;;;;;;;;;;;;;;;10.65;77.87;99233.19;5113845;28;19926;-67
2024/02/05 02:48:06;;;;;;;;;;;;;;;10.66;78.21;99248.47;5113623;28;19923;-66
2024/02/05 02:50:35;;;;;;;;;;;;;;;10.67;77.90;99245.09;5114156;28;20378;-66
2024/02/05 02:53:04;;;;;;;;;;;;;;;10.68;78.07;99241.66;5114889;28;19969;-66
2024/02/05 02:55:32;;;;;;;;;;;;;;;10.68;78.30;99245.91;5113553;28;19926;-66
2024/02/05 02:58:02;;;;;;;;;;;;;;;10.67;78.39;99250.19;5113956;28;20361;-66
2024/02/05 03:00:30;;;;;;;;;;;;;;;10.65;78.52;99262.09;5113902;28;19954;-66
2024/02/05 03:02:59;;;;;;;;;;;;;;;10.65;78.61;99256.97;5114748;28;19945;-66
2024/02/05 03:05:27;;;;;;;;;;;;;;;10.65;78.78;99261.25;5096771;28;19928;-66
2024/02/05 03:07:56;;;;;;;;;;;;;;;10.63;78.93;99261.25;5114712;28;20362;-65
2024/02/05 03:10:24;;;;;;;;;;;;;;;10.61;78.93;99265.53;5114957;28;20018;-66
2024/02/05 03:12:53;;;;;;;;;;;;;;;10.60;79.08;99263.84;5115566;28;19951;-66
2024/02/05 03:15:23;;;;;;;;;;;;;;;10.62;79.03;99257.03;5114528;28;19969;-66
2024/02/05 03:17:51;;;;;;;;;;;;;;;10.63;78.95;99248.50;5113394;28;20289;-66
2024/02/05 03:20:33;;;;;;;;;;;;;;;10.63;78.98;99262.94;5114829;28;20014;-66
2024/02/05 03:23:03;;;;;;;;;;;;;;;10.60;78.62;99268.09;5114538;28;19920;-67
2024/02/05 03:25:38;;;;;;;;;;;;;;;10.60;78.72;99268.09;5113984;28;19920;-66
2024/02/05 03:28:07;;;;;;;;;;;;;;;10.62;78.72;99266.38;5114505;28;19924;-67
2024/02/05 03:30:39;;;;;;;;;;;;;;;10.66;78.90;99274.00;5114763;28;19951;-66
2024/02/05 03:33:08;;;;;;;;;;;;;;;10.68;78.55;99282.47;5115068;28;19928;-65
2024/02/05 03:35:37;;;;;;;;;;;;;;;10.69;78.64;99276.53;5114333;28;19920;-64
2024/02/05 03:38:06;;;;;;;;;;;;;;;10.65;78.64;99277.41;5114378;28;20027;-66
2024/02/05 03:40:35;;;;;;;;;;;;;;;10.68;78.76;99282.47;5114543;28;19961;-64
2024/02/05 03:43:04;;;;;;;;;;;;;;;10.69;78.73;99279.09;5114134;28;19919;-66
2024/02/05 03:45:33;;;;;;;;;;;;;;;10.66;78.83;99279.09;5114889;28;19920;-65
2024/02/05 03:48:03;;;;;;;;;;;;;;;10.68;79.17;99282.47;5114127;28;19919;-65
2024/02/05 03:50:32;;;;;;;;;;;;;;;10.66;78.94;99274.00;5114540;28;20361;-64
2024/02/05 03:53:01;;;;;;;;;;;;;;;10.65;79.24;99287.59;5117582;28;19919;-65
2024/02/05 03:55:30;;;;;;;;;;;;;;;10.65;79.26;99276.56;5118680;28;20010;-66
2024/02/05 03:57:59;;;;;;;;;;;;;;;10.64;79.61;99279.97;5118242;28;19919;-66
2024/02/05 04:00:28;;;;;;;;;;;;;;;10.63;79.59;99285.91;5118369;28;19919;-66
2024/02/05 04:02:57;;;;;;;;;;;;;;;10.63;79.81;99288.47;5100200;28;19927;-67
2024/02/05 04:05:28;;;;;;;;;;;;;;;10.63;79.86;99284.22;5118188;28;19923;-66
2024/02/05 04:07:58;;;;;;;;;;;;;;;10.64;80.13;99279.97;5118079;28;20369;-65
2024/02/05 04:10:27;;;;;;;;;;;;;;;10.62;80.11;99291.91;5116867;28;19962;-66
2024/02/05 04:12:56;;;;;;;;;;;;;;;10.58;80.14;99278.31;5118319;28;19931;-66
2024/02/05 04:15:24;;;;;;;;;;;;;;;10.56;80.63;99287.69;5118582;28;19919;-66
2024/02/05 04:17:53;;;;;;;;;;;;;;;10.52;81.06;99291.13;5118561;28;19919;-65
2024/02/05 04:20:21;;;;;;;;;;;;;;;10.51;81.42;99286.88;5118200;28;19919;-66
2024/02/05 04:22:52;;;;;;;;;;;;;;;10.47;81.84;99292.00;5099518;28;20316;-67
2024/02/05 04:25:21;;;;;;;;;;;;;;;10.43;82.46;99291.19;5117832;27;19966;-67
2024/02/05 04:27:50;;;;;;;;;;;;;;;10.41;82.08;99277.59;5116840;28;19969;-65
2024/02/05 04:30:26;;;;;;;;;;;;;;;10.40;82.12;99270.78;5118334;28;19920;-66
2024/02/05 04:32:55;;;;;;;;;;;;;;;10.40;82.55;99278.44;5118066;28;19920;-66
2024/02/05 04:35:24;;;;;;;;;;;;;;;10.38;82.87;99272.50;5118188;28;19920;-66
2024/02/05 04:37:54;;;;;;;;;;;;;;;10.36;83.14;99274.22;5116340;28;19926;-66
2024/02/05 04:40:22;;;;;;;;;;;;;;;10.33;83.36;99271.69;5118527;28;19919;-66
2024/02/05 04:42:51;;;;;;;;;;;;;;;10.33;83.59;99269.13;5117593;28;20289;-66
2024/02/05 04:45:20;;;;;;;;;;;;;;;10.30;83.97;99271.69;5116545;28;19959;-65
2024/02/05 04:47:48;;;;;;;;;;;;;;;10.30;84.16;99278.50;5117321;28;20017;-66
2024/02/05 04:50:17;;;;;;;;;;;;;;;10.29;84.24;99277.69;5116382;28;19988;-66
2024/02/05 04:52:47;;;;;;;;;;;;;;;10.29;84.42;99272.59;5117467;28;20015;-66
2024/02/05 04:55:17;;;;;;;;;;;;;;;10.29;84.51;99271.72;5117569;28;19923;-66
2024/02/05 04:57:48;;;;;;;;;;;;;;;10.28;84.70;99258.13;5117811;28;19924;-66
2024/02/05 05:00:18;;;;;;;;;;;;;;;10.26;84.50;99262.38;5117062;28;19920;-65
2024/02/05 05:02:47;;;;;;;;;;;;;;;10.24;84.91;99264.09;5115665;28;19919;-65
2024/02/05 05:05:15;;;;;;;;;;;;;;;10.24;84.79;99274.31;5116631;28;19919;-65
2024/02/05 05:07:44;;;;;;;;;;;;;;;10.23;84.89;99271.75;5098813;28;19935;-66
2024/02/05 05:10:13;;;;;;;;;;;;;;;10.22;84.74;99272.63;5117242;28;20289;-66
2024/02/05 05:12:43;;;;;;;;;;;;;;;10.22;84.82;99275.16;5116895;28;19927;-65
2024/02/05 05:15:15;;;;;;;;;;;;;;;10.24;84.66;99270.91;5117425;28;20357;-65
2024/02/05 05:17:43;;;;;;;;;;;;;;;10.24;84.76;99274.31;5117173;28;20365;-66
2024/02/05 05:20:13;;;;;;;;;;;;;;;10.24;84.73;99264.09;5117035;28;19919;-66
2024/02/05 05:22:42;;;;;;;;;;;;;;;10.26;84.50;99252.19;5116503;28;19920;-66
2024/02/05 05:25:10;;;;;;;;;;;;;;;10.28;84.54;99260.66;5116663;28;19969;-64
2024/02/05 05:27:40;;;;;;;;;;;;;;;10.31;83.71;99253.00;5116785;28;20029;-65
2024/02/05 05:30:11;;;;;;;;;;;;;;;10.34;83.62;99255.50;5116926;28;20032;-65
2024/02/05 05:32:39;;;;;;;;;;;;;;;10.38;83.28;99264.84;5116896;28;19919;-66
2024/02/05 05:35:08;;;;;;;;;;;;;;;10.43;82.79;99255.47;5116312;28;19920;-66
2024/02/05 05:37:40;;;;;;;;;;;;;;;10.46;82.38;99260.53;5116776;27;19926;-66
2024/02/05 05:40:09;;;;;;;;;;;;;;;10.50;81.86;99272.44;5116993;28;19923;-67
2024/02/05 05:42:38;;;;;;;;;;;;;;;10.55;81.19;99272.41;5116526;28;19963;-67
2024/02/05 05:45:07;;;;;;;;;;;;;;;10.54;80.96;99276.66;5098237;28;20403;-66
2024/02/05 05:47:38;;;;;;;;;;;;;;;10.53;80.71;99277.50;5116785;28;20388;-67
2024/02/05 05:50:08;;;;;;;;;;;;;;;10.56;80.19;99286.81;5116237;28;20366;-67
2024/02/05 05:52:37;;;;;;;;;;;;;;;10.56;79.94;99292.78;5116131;28;19931;-66
2024/02/05 05:55:07;;;;;;;;;;;;;;;10.55;79.88;99301.31;5116242;28;19919;-67
2024/02/05 05:57:35;;;;;;;;;;;;;;;10.58;79.63;99306.38;5116368;28;20014;-67
2024/02/05 06:00:05;;;;;;;;;;;;;;;10.59;79.27;99318.28;5115921;28;19925;-67
2024/02/05 06:02:34;;;;;;;;;;;;;;;10.62;79.16;99318.28;5114760;28;19924;-67
2024/02/05 06:05:05;;;;;;;;;;;;;;;10.65;78.69;99320.78;5116077;28;19965;-65
2024/02/05 06:07:39;;;;;;;;;;;;;;;10.70;77.93;99325.88;5116111;28;19919;-66
2024/02/05 06:10:08;;;;;;;;;;;;;;;10.72;78.23;99335.19;5115666;28;20266;-66
2024/02/05 06:12:37;;;;;;;;;;;;;;;10.72;77.84;99335.19;5115720;28;20361;-67
2024/02/05 06:15:07;;;;;;;;;;;;;;;10.73;77.56;99330.94;5114548;28;19920;-66
2024/02/05 06:17:36;;;;;;;;;;;;;;;10.73;77.38;99336.91;5116260;28;19919;-66
2024/02/05 06:20:07;;;;;;;;;;;;;;;10.71;77.33;99336.06;5115402;28;19920;-66
2024/02/05 06:22:37;;;;;;;;;;;;;;;10.66;77.51;99332.69;5115869;28;19988;-67
2024/02/05 06:25:06;;;;;;;;;;;;;;;10.64;77.78;99341.22;5115804;28;19927;-66
2024/02/05 06:27:34;;;;;;;;;;;;;;;10.62;77.92;99340.38;5115582;28;19926;-66
2024/02/05 06:30:03;;;;;;;;;;;;;;;10.61;77.63;99347.19;5115564;28;19943;-66
2024/02/05 06:32:32;;;;;;;;;;;;;;;10.61;77.39;99336.97;5114326;28;19925;-67
2024/02/05 06:35:01;;;;;;;;;;;;;;;10.61;77.41;99338.69;5115497;28;20426;-66
2024/02/05 06:37:32;;;;;;;;;;;;;;;10.60;77.39;99334.44;5115234;28;19919;-66
2024/02/05 06:40:00;;;;;;;;;;;;;;;10.58;77.12;99341.28;5115806;27;19941;-66
2024/02/05 06:42:29;;;;;;;;;;;;;;;10.62;76.80;99338.69;5115170;28;19920;-65
2024/02/05 06:44:57;;;;;;;;;;;;;;;10.63;76.59;99348.03;5114081;28;20385;-66
2024/02/05 06:47:25;;;;;;;;;;;;;;;10.64;76.35;99342.06;5115922;28;19923;-65
2024/02/05 06:49:54;;;;;;;;;;;;;;;10.64;76.01;99347.19;5113613;28;20285;-66
2024/02/05 06:52:22;;;;;;;;;;;;;;;10.63;76.04;99337.81;5115313;28;19920;-67
2024/02/05 06:54:53;;;;;;;;;;;;;;;10.65;75.51;99338.66;5113000;28;19927;-66
2024/02/05 06:57:21;;;;;;;;;;;;;;;10.66;75.55;99325.03;5115383;28;20318;-66
2024/02/05 06:59:50;;;;;;;;;;;;;;;10.66;75.49;99325.03;5114995;28;20367;-65
2024/02/05 07:02:18;;;;;;;;;;;;;;;10.66;75.02;99340.34;5113688;28;19924;-65
2024/02/05 07:04:48;;;;;;;;;;;;;;;10.65;75.26;99319.97;5114921;28;20327;-66
2024/02/05 07:07:17;;;;;;;;;;;;;;;10.66;75.04;99339.50;5114574;28;19928;-65
2024/02/05 07:09:46;;;;;;;;;;;;;;;10.66;75.01;99339.50;5114688;27;20023;-66
2024/02/05 07:12:18;;;;;;;;;;;;;;;10.68;74.51;99342.88;5114740;28;19919;-66
2024/02/05 07:14:46;;;;;;;;;;;;;;;10.71;74.47;99348.84;5114592;28;20022;-66
2024/02/05 07:17:16;;;;;;;;;;;;;;;10.70;74.47;99347.13;5114433;28;19926;-65
2024/02/05 07:19:44;;;;;;;;;;;;;;;10.72;74.37;99349.69;5114362;28;19919;-66
2024/02/05 07:22:13;;;;;;;;;;;;;;;10.71;74.14;99348.84;5113559;28;19955;-66
2024/02/05 07:24:44;;;;;;;;;;;;;;;10.74;74.17;99345.41;5114305;28;19963;-66
2024/02/05 07:27:12;;;;;;;;;;;;;;;10.74;74.05;99358.19;5114451;28;19920;-66
2024/02/05 07:29:43;;;;;;;;;;;;;;;10.75;73.92;99359.84;5114191;28;19920;-67
2024/02/05 07:32:11;;;;;;;;;;;;;;;10.76;73.61;99362.41;5114706;28;19920;-65
2024/02/05 07:34:40;;;;;;;;;;;;;;;10.82;73.49;99373.44;5114617;28;19920;-65
2024/02/05 07:37:08;;;;;;;;;;;;;;;10.83;73.37;99382.78;5114329;28;20026;-66
2024/02/05 07:39:37;;;;;;;;;;;;;;;10.86;73.35;99372.56;5114310;28;19972;-65
2024/02/05 07:42:06;;;;;;;;;;;;;;;10.89;72.95;99382.75;5114179;28;19963;-65
2024/02/05 07:44:34;;;;;;;;;;;;;;;10.90;73.03;99376.78;5114661;28;19919;-65
2024/02/05 07:47:04;;;;;;;;;;;;;;;10.90;72.93;99394.63;5114482;28;19920;-66
2024/02/05 07:49:32;;;;;;;;;;;;;;;10.89;73.15;99401.47;5114141;28;19919;-65
2024/02/05 07:52:01;;;;;;;;;;;;;;;10.92;73.11;99392.97;5114483;28;19977;-66
2024/02/05 07:54:30;;;;;;;;;;;;;;;10.98;72.83;99383.53;5114031;28;19919;-67
2024/02/05 07:57:02;;;;;;;;;;;;;;;10.98;72.89;99380.97;5114444;28;20332;-66
2024/02/05 07:59:31;;;;;;;;;;;;;;;11.04;72.46;99390.28;5114055;28;20014;-66
2024/02/05 08:01:59;;;;;;;;;;;;;;;11.07;71.99;99387.72;5113976;28;19920;-65
2024/02/05 08:04:30;;;;;;;;;;;;;;;11.11;71.90;99391.97;5114388;28;19924;-66
2024/02/05 08:07:00;;;;;;;;;;;;;;;11.14;71.86;99404.69;5114074;28;19919;-65
2024/02/05 08:09:29;;;;;;;;;;;;;;;11.15;72.01;99411.50;5112506;28;19984;-66
2024/02/05 08:12:03;;;;;;;;;;;;;;;11.17;71.83;99399.56;5114339;28;19951;-66
2024/02/05 08:14:31;;;;;;;;;;;;;;;11.18;71.72;99378.28;5114312;28;19942;-67
2024/02/05 08:17:00;;;;;;;;;;;;;;;11.20;71.33;99374.00;5112859;28;19920;-66
2024/02/05 08:19:29;;;;;;;;;;;;;;;11.25;70.99;99382.47;5113884;28;19927;-66
2024/02/05 08:21:59;;;;;;;;;;;;;;;11.27;71.14;99373.09;5114491;28;19942;-66
2024/02/05 08:24:27;;;;;;;;;;;;;;;11.30;71.15;99380.75;5113755;28;19949;-66
2024/02/05 08:26:56;;;;;;;;;;;;;;;11.32;70.97;99379.00;5114158;28;19920;-66
2024/02/05 08:29:25;;;;;;;;;;;;;;;11.36;70.90;99390.88;5113964;28;19989;-66
2024/02/05 08:31:54;;;;;;;;;;;;;;;11.38;70.60;99381.50;5114233;28;20011;-65
2024/02/05 08:34:23;;;;;;;;;;;;;;;11.43;70.36;99392.53;5114173;28;19920;-66
2024/02/05 08:36:52;;;;;;;;;;;;;;;11.44;70.59;99384.00;5112669;28;19962;-66
2024/02/05 08:39:21;;;;;;;;;;;;;;;11.48;70.59;99389.94;5115578;28;19958;-66
2024/02/05 08:41:49;;;;;;;;;;;;;;;11.52;70.26;99382.22;5117692;28;20019;-66
2024/02/05 08:44:18;;;;;;;;;;;;;;;11.54;70.14;99380.50;5117639;28;20385;-65
2024/02/05 08:46:46;;;;;;;;;;;;;;;11.58;70.02;99387.28;5117270;28;19984;-66
2024/02/05 08:49:14;;;;;;;;;;;;;;;11.62;69.65;99362.53;5117512;28;19973;-66
2024/02/05 08:51:43;;;;;;;;;;;;;;;11.64;69.59;99366.75;5117754;28;19920;-66
2024/02/05 08:54:14;;;;;;;;;;;;;;;11.68;69.79;99367.63;5117240;27;20056;-66
2024/02/05 08:56:43;;;;;;;;;;;;;;;11.72;69.94;99379.50;5117465;28;19926;-66
2024/02/05 08:59:11;;;;;;;;;;;;;;;11.73;69.90;99370.97;5117527;27;19965;-66
2024/02/05 09:01:42;;;;;;;;;;;;;;;11.73;69.80;99366.72;5117224;28;19951;-66
2024/02/05 09:04:10;;;;;;;;;;;;;;;11.76;69.40;99387.13;5117353;28;19920;-66
2024/02/05 09:06:39;;;;;;;;;;;;;;;11.80;69.17;99387.94;5117600;28;20026;-65
2024/02/05 09:09:09;;;;;;;;;;;;;;;11.83;69.05;99386.19;5116919;28;20022;-65
2024/02/05 09:11:39;;;;;;;;;;;;;;;11.89;68.81;99393.81;5116874;28;19919;-66
2024/02/05 09:14:24;;;;;;;;;;;;;;;11.89;68.65;99378.47;5115910;28;19923;-65
2024/02/05 09:16:53;;;;;;;;;;;;;;;11.92;68.81;99388.69;5117198;28;19923;-65
2024/02/05 09:19:24;;;;;;;;;;;;;;;11.93;68.57;99403.13;5117065;28;19920;-66
2024/02/05 09:21:53;;;;;;;;;;;;;;;11.92;68.57;99409.13;5116457;28;19923;-65
2024/02/05 09:24:23;;;;;;;;;;;;;;;11.94;68.34;99404.84;5116442;28;20365;-67
2024/02/05 09:26:53;;;;;;;;;;;;;;;11.92;68.41;99404.03;5117193;28;20273;-66
2024/02/05 09:29:22;;;;;;;;;;;;;;;11.91;68.54;99412.53;5116935;28;20339;-66
2024/02/05 09:31:51;;;;;;;;;;;;;;;11.93;68.16;99409.97;5116474;28;19919;-64
2024/02/05 09:34:20;;;;;;;;;;;;;;;11.94;68.23;99415.06;5116764;28;19920;-65
2024/02/05 09:36:48;;;;;;;;;;;;;;;11.98;68.23;99429.50;5116450;28;19924;-66
2024/02/05 09:39:18;;;;;;;;;;;;;;;11.99;67.98;99425.25;5117027;28;20369;-66
2024/02/05 09:41:47;;;;;;;;;;;;;;;12.00;68.06;99427.78;5116489;28;19920;-65
2024/02/05 09:44:17;;;;;;;;;;;;;;;12.02;68.10;99415.81;5115305;28;19920;-65
2024/02/05 09:46:48;;;;;;;;;;;;;;;12.02;68.06;99420.94;5116799;28;20369;-66
2024/02/05 09:49:18;;;;;;;;;;;;;;;12.04;67.90;99416.66;5115871;28;19962;-66
2024/02/05 09:51:49;;;;;;;;;;;;;;;12.09;67.91;99412.34;5116150;28;19961;-65
2024/02/05 09:54:18;;;;;;;;;;;;;;;12.11;67.54;99420.00;5116106;28;19919;-65
2024/02/05 09:56:50;;;;;;;;;;;;;;;12.11;67.69;99417.44;5116528;28;19951;-65
2024/02/05 09:59:20;;;;;;;;;;;;;;;12.09;67.85;99404.66;5115993;28;19919;-65
2024/02/05 10:01:50;;;;;;;;;;;;;;;12.11;67.29;99409.78;5116204;28;19924;-65
2024/02/05 10:04:19;;;;;;;;;;;;;;;12.12;67.52;99405.50;5114515;28;20343;-67
2024/02/05 10:06:51;;;;;;;;;;;;;;;12.14;67.51;99408.91;5116051;28;19931;-66
2024/02/05 10:09:21;;;;;;;;;;;;;;;12.17;67.04;99408.84;5116704;28;20334;-66
2024/02/05 10:11:50;;;;;;;;;;;;;;;12.19;67.19;99414.81;5115548;28;19919;-67
2024/02/05 10:14:25;;;;;;;;;;;;;;;12.19;67.02;99407.13;5115565;28;19924;-66
2024/02/05 10:16:57;;;;;;;;;;;;;;;12.20;67.37;99408.81;5115986;28;19919;-67
2024/02/05 10:19:30;;;;;;;;;;;;;;;12.20;67.59;99419.03;5115814;28;20362;-66
2024/02/05 10:21:59;;;;;;;;;;;;;;;12.18;67.49;99415.66;5115640;28;19972;-66
2024/02/05 10:24:27;;;;;;;;;;;;;;;12.15;67.51;99420.81;5115350;28;19919;-66
2024/02/05 10:26:56;;;;;;;;;;;;;;;12.17;67.56;99419.06;5115787;28;20388;-67
2024/02/05 10:29:26;;;;;;;;;;;;;;;12.15;66.98;99436.16;5115372;28;20322;-66
2024/02/05 10:31:58;;;;;;;;;;;;;;;12.15;67.06;99426.78;5115808;28;20276;-66
2024/02/05 10:34:27;;;;;;;;;;;;;;;12.13;67.03;99435.34;5114163;28;19926;-66
2024/02/05 10:37:04;;;;;;;;;;;;;;;12.12;67.24;99441.31;5115564;28;20392;-66
2024/02/05 10:39:33;;;;;;;;;;;;;;;12.11;67.15;99435.34;5115617;28;20387;-65
2024/02/05 10:42:04;;;;;;;;;;;;;;;12.09;66.96;99443.03;5115320;28;20293;-66
2024/02/05 10:44:33;;;;;;;;;;;;;;;12.07;66.90;99434.53;5115096;28;19968;-67
2024/02/05 10:47:09;;;;;;;;;;;;;;;12.06;67.05;99448.19;5115136;28;19923;-66
2024/02/05 10:49:38;;;;;;;;;;;;;;;12.06;67.56;99443.09;5113991;28;19919;-67
2024/02/05 10:52:07;;;;;;;;;;;;;;;12.03;67.83;99435.44;5113621;28;20036;-66
2024/02/05 10:54:41;;;;;;;;;;;;;;;12.00;67.45;99443.13;5115202;28;20010;-67
2024/02/05 10:57:10;;;;;;;;;;;;;;;11.98;67.43;99452.53;5115224;28;19928;-66
2024/02/05 10:59:40;;;;;;;;;;;;;;;11.97;67.49;99453.38;5113828;28;20337;-66
2024/02/05 11:02:12;;;;;;;;;;;;;;;12.00;67.61;99445.69;5114129;28;19919;-66
2024/02/05 11:04:41;;;;;;;;;;;;;;;11.98;67.75;99460.22;5113815;28;19926;-66
2024/02/05 11:07:10;;;;;;;;;;;;;;;11.96;67.71;99449.16;5114961;28;19932;-65
2024/02/05 11:09:39;;;;;;;;;;;;;;;11.97;67.56;99458.50;5114687;28;20002;-66
2024/02/05 11:12:09;;;;;;;;;;;;;;;11.96;67.58;99441.47;5114910;28;19974;-66
2024/02/05 11:14:39;;;;;;;;;;;;;;;11.96;67.62;99451.72;5111436;28;20454;-67
2024/02/05 11:17:10;;;;;;;;;;;;;;;11.94;67.19;99448.31;5102999;28;20018;-67
2024/02/05 11:26:21;;;;;;;;;;;;;;;11.91;67.92;99468.81;5062864;28;19924;-66
2024/02/05 11:28:56;;;;;;;;;;;;;;;11.91;67.55;99458.56;5062736;28;19927;-67
2024/02/05 11:31:36;;;;;;;;;;;;;;;11.94;67.39;99458.56;5053763;28;19971;-66
2024/02/05 11:38:39;;;;;;;;;;;;;;;11.96;67.27;99451.72;4953875;29;19965;-66
2024/02/05 11:41:10;;;;;;;;;;;;;;;11.96;67.32;99456.81;5003507;28;19928;-65
2024/02/05 11:43:39;;;;;;;;;;;;;;;11.95;67.35;99465.34;5012359;28;19921;-65
2024/02/05 11:46:07;;;;;;;;;;;;;;;12.01;67.30;99449.97;5012556;28;19922;-66
2024/02/05 11:48:36;;;;;;;;;;;;;;;12.03;67.34;99447.38;5011919;28;19921;-65
2024/02/05 11:51:08;;;;;;;;;;;;;;;12.06;66.94;99442.22;5012256;28;19922;-65
2024/02/05 11:53:46;;;;;;;;;;;;;;;12.09;66.80;99449.88;5012006;28;19977;-65
2024/02/05 11:56:16;;;;;;;;;;;;;;;12.10;67.08;99454.97;5012185;28;19964;-66
2024/02/05 11:58:44;;;;;;;;;;;;;;;12.14;67.09;99450.66;5012317;28;19957;-66
2024/02/05 12:01:13;;;;;;;;;;;;;;;12.19;66.61;99445.50;5012120;28;20055;-67
2024/02/05 12:03:42;;;;;;;;;;;;;;;12.23;66.83;99455.69;5012185;28;19921;-66
2024/02/05 12:06:13;;;;;;;;;;;;;;;12.24;66.46;99446.31;4996713;28;20016;-66
2024/02/05 12:08:41;;;;;;;;;;;;;;;12.25;66.43;99437.75;5053467;28;19971;-66
2024/02/05 12:11:11;;;;;;;;;;;;;;;12.27;66.55;99438.56;5052246;28;19920;-65
2024/02/05 12:13:41;;;;;;;;;;;;;;;12.30;66.25;99426.59;5053532;28;19921;-66
2024/02/05 12:16:11;;;;;;;;;;;;;;;12.33;66.17;99436.81;5057745;28;19947;-66
2024/02/05 12:18:40;;;;;;;;;;;;;;;12.34;66.19;99445.31;5057336;28;19925;-66
2024/02/05 12:21:15;;;;;;;;;;;;;;;12.36;65.95;99430.78;5057619;28;19924;-66
2024/02/05 12:23:43;;;;;;;;;;;;;;;12.39;66.26;99431.59;5074192;28;19920;-66
2024/02/05 12:26:12;;;;;;;;;;;;;;;12.38;66.37;99424.78;5097324;28;19924;-66
2024/02/05 12:28:43;;;;;;;;;;;;;;;12.37;66.22;99427.38;5097275;28;19920;-65
2024/02/05 12:31:18;;;;;;;;;;;;;;;12.37;66.02;99423.09;5097658;28;20020;-65
2024/02/05 12:33:56;;;;;;;;;;;;;;;12.38;65.82;99432.47;5098226;28;19919;-66
2024/02/05 12:36:25;;;;;;;;;;;;;;;12.40;66.05;99422.22;5097184;28;19969;-65
2024/02/05 12:38:53;;;;;;;;;;;;;;;12.41;65.62;99418.78;5096167;28;19920;-66
2024/02/05 12:41:22;;;;;;;;;;;;;;;12.39;66.38;99416.25;5097289;28;19924;-66
2024/02/05 12:43:54;;;;;;;;;;;;;;;12.35;66.44;99422.28;5097280;28;19943;-67
2024/02/05 12:46:25;;;;;;;;;;;;;;;12.31;66.88;99412.94;5097340;28;20395;-66
2024/02/05 12:48:54;;;;;;;;;;;;;;;12.30;67.08;99420.63;5095888;28;20004;-65
2024/02/05 12:51:22;;;;;;;;;;;;;;;12.28;67.14;99417.25;5096952;28;19947;-66
2024/02/05 12:53:51;;;;;;;;;;;;;;;12.27;67.61;99426.63;5097034;28;19926;-66
2024/02/05 12:56:21;;;;;;;;;;;;;;;12.34;66.34;99409.50;5097631;28;20003;-66
2024/02/05 12:58:51;;;;;;;;;;;;;;;12.36;65.92;99400.94;5096989;28;19920;-67
2024/02/05 13:01:22;;;;;;;;;;;;;;;12.37;66.14;99401.78;5097075;28;19924;-67
2024/02/05 13:03:51;;;;;;;;;;;;;;;12.28;66.80;99417.25;5096204;28;20018;-67
2024/02/05 13:06:23;;;;;;;;;;;;;;;12.25;67.27;99427.53;5095208;28;19920;-66
2024/02/05 13:08:54;;;;;;;;;;;;;;;12.22;67.38;99428.41;5096523;28;19920;-65
2024/02/05 13:11:24;;;;;;;;;;;;;;;12.19;67.10;99430.16;5096758;28;19935;-66